Terminal Aerodrome Forecast
Issued by NWS

Home | Current Version | Previous Version | Text Only | Print | Product List | Glossary On
Versions: 1 2 3 4 5 6 7 8 9 10 11 12 13 14 15 16 17 18 19 20 21 22 23 24 25 26 27 28 29 30 31 32 33 34 35 36 37 38 39 40 41
000
FTUS41 KALY 192320
TAFPSF
TAF
KPSF 192320Z 2000/2024 29014G24KT 6SM -SHSN BR BKN025 OVC040
      TEMPO 2000/2002 1 1/2SM -SHSN BR BKN009 OVC012
     FM200500 30011KT P6SM VCSH SCT025 OVC035
     FM201400 30013G23KT P6SM VCSH BKN035 OVC050
     FM201700 31016G27KT P6SM BKN040=

USA.gov is the U.S. government's official web portal to all federal, state and local government web resources and services.